Anemona — 3EUT9 — position and weather

sailwx.info

Track history (hours):
 
Tides and Currents Weather Stations Pressure Air Temp Water Temp Dewpoint Dewpoint Depression Visibility Wind Speed Wind Dir Waves Ship Positions

Anemona

Last reported at 2017-May-26 06:12 UTC. Time now 2017-May-26 15:02 UTC.
Position N 31°48' E 123°56'.

Length 192 m; draft 10.4 m.

Type: Cargo ship. MMSI: 355664000.

Date/timePositionNaut miles runAvg speedWind from/ knotsBaromVisibWave heightAir tempDewpointWater temp
2017-May-26 06:12N 31°48' E 123°56'313.1
2017-May-26 06:00N 31°51' E 123°56'612.7
2017-May-26 05:30N 31°57' E 123°56'  
2017-May-19 13:52N 32°24' E 123°55'411.1
2017-May-19 13:31N 32°20' E 123°55'4711.6
2017-May-19 09:29N 31°33' E 123°56'612.4
2017-May-19 09:00N 31°28' E 123°56'612.4
2017-May-19 08:31N 31°21' E 123°56'612.3
2017-May-19 08:00N 31°15' E 123°56'1712.4
2017-May-19 06:36N 30°58' E 123°56'112.4
2017-May-19 06:30N 30°57' E 123°56'  
Track history (hours):
 
Tides and Currents Weather Stations Pressure Air Temp Water Temp Dewpoint Dewpoint Depression Visibility Wind Speed Wind Dir Waves Ship Positions

Anemona

Last reported at 2017-May-26 06:12 UTC. Time now 2017-May-26 15:02 UTC.
Position N 31°48' E 123°56'.

Length 192 m; draft 10.4 m.

Type: Cargo ship. MMSI: 355664000.

Date/timePositionNaut miles runAvg speedWind from/ knotsBaromVisibWave heightAir tempDewpointWater temp
2017-May-26 06:12N 31°48' E 123°56'313.1
2017-May-26 06:00N 31°51' E 123°56'612.7
2017-May-26 05:30N 31°57' E 123°56'  
2017-May-19 13:52N 32°24' E 123°55'411.1
2017-May-19 13:31N 32°20' E 123°55'4711.6
2017-May-19 09:29N 31°33' E 123°56'612.4
2017-May-19 09:00N 31°28' E 123°56'612.4
2017-May-19 08:31N 31°21' E 123°56'612.3
2017-May-19 08:00N 31°15' E 123°56'1712.4
2017-May-19 06:36N 30°58' E 123°56'112.4
2017-May-19 06:30N 30°57' E 123°56'  

Dump ship's entire track history